Time;durP1;ratioP1;P1;durP2;ratioP2;P2;SDS_P1;SDS_P2;PMS_P1;PMS_P2;Temp;Humidity;BMP_temperature;BMP_pressure;BME280_temperature;BME280_humidity;BME280_pressure;Samples;Min_cycle;Max_cycle;Signal;HPM_P1;HPM_P2
2021/08/30 00:01:54;;;;;;;17.10;13.23;;;16.40;99.90;;;;;;5074651;28;20388;-60
2021/08/30 00:04:20;;;;;;;16.23;14.13;;;16.40;99.90;;;;;;5079076;28;20396;-60
2021/08/30 00:06:49;;;;;;;16.45;13.43;;;16.40;99.90;;;;;;5075160;28;20044;-60
2021/08/30 00:09:15;;;;;;;16.35;12.63;;;16.40;99.90;;;;;;5076384;28;20526;-60
2021/08/30 00:11:42;;;;;;;18.88;13.85;;;16.40;99.90;;;;;;5073182;28;20551;-60
2021/08/30 00:14:08;;;;;;;19.42;13.70;;;16.40;99.90;;;;;;5068696;28;20053;-60
2021/08/30 00:16:34;;;;;;;18.63;13.63;;;16.40;99.90;;;;;;5066644;28;20063;-60
2021/08/30 00:19:00;;;;;;;23.27;15.55;;;16.40;99.90;;;;;;5070898;28;20048;-59
2021/08/30 00:21:26;;;;;;;20.67;14.90;;;16.40;99.90;;;;;;5067782;28;20056;-60
2021/08/30 00:23:52;;;;;;;16.67;14.00;;;16.30;99.90;;;;;;5080747;28;20052;-60
2021/08/30 00:26:21;;;;;;;17.13;15.05;;;16.30;99.90;;;;;;5074994;28;20136;-60
2021/08/30 00:28:47;;;;;;;21.27;15.38;;;16.30;99.90;;;;;;5070069;28;20060;-60
2021/08/30 00:31:16;;;;;;;19.77;15.25;;;16.30;99.90;;;;;;5080077;28;20488;-60
2021/08/30 00:33:42;;;;;;;20.30;15.35;;;16.40;99.90;;;;;;5074934;28;20091;-60
2021/08/30 00:36:08;;;;;;;20.02;15.77;;;16.30;99.90;;;;;;5092625;28;20127;-60
2021/08/30 00:38:35;;;;;;;19.23;15.43;;;16.30;99.90;;;;;;5075316;28;20088;-60
2021/08/30 00:41:02;;;;;;;19.45;15.43;;;16.30;99.90;;;;;;5083539;28;20518;-60
2021/08/30 00:43:30;;;;;;;18.08;16.17;;;16.30;99.90;;;;;;5084276;28;20070;-60
2021/08/30 00:45:58;;;;;;;18.80;16.15;;;16.30;99.90;;;;;;5066346;28;20067;-59
2021/08/30 00:48:24;;;;;;;21.70;18.02;;;16.30;99.90;;;;;;5067782;28;20063;-60
2021/08/30 00:50:54;;;;;;;18.85;15.40;;;16.40;99.90;;;;;;5076796;28;20054;-59
2021/08/30 00:53:20;;;;;;;24.45;17.65;;;16.40;99.90;;;;;;5073858;28;20504;-59
2021/08/30 00:55:48;;;;;;;21.50;16.45;;;16.40;99.90;;;;;;5071272;28;20086;-61
2021/08/30 00:58:16;;;;;;;27.50;17.48;;;16.40;99.90;;;;;;5066048;28;20815;-60
2021/08/30 01:00:43;;;;;;;23.20;16.90;;;16.40;99.90;;;;;;5078380;28;20507;-61
2021/08/30 01:03:09;;;;;;;23.33;18.33;;;16.40;99.90;;;;;;5081924;28;20047;-60
2021/08/30 01:05:40;;;;;;;21.67;17.35;;;16.40;99.90;;;;;;5068592;28;20090;-60
2021/08/30 01:08:21;;;;;;;22.65;16.80;;;16.40;99.90;;;;;;5069729;28;20064;-61
2021/08/30 01:11:22;;;;;;;23.05;18.88;;;16.40;99.90;;;;;;5067953;28;20070;-60
2021/08/30 01:13:55;;;;;;;26.23;17.50;;;16.40;99.90;;;;;;5039726;28;20064;-60
2021/08/30 01:16:24;;;;;;;27.88;19.55;;;16.40;99.90;;;;;;5040092;28;20049;-61
2021/08/30 01:18:52;;;;;;;27.10;18.23;;;16.50;99.90;;;;;;5043495;28;20111;-60
2021/08/30 01:21:32;;;;;;;22.73;18.08;;;16.50;99.90;;;;;;5046782;28;20056;-61
2021/08/30 01:24:12;;;;;;;28.52;19.15;;;16.50;99.90;;;;;;5061812;28;20053;-60
2021/08/30 01:26:45;;;;;;;29.35;19.27;;;16.50;99.90;;;;;;5045289;28;20576;-60
2021/08/30 01:29:24;;;;;;;26.88;18.67;;;16.50;99.90;;;;;;5045406;28;20163;-59
2021/08/30 01:31:53;;;;;;;24.58;19.50;;;16.50;99.90;;;;;;5043291;28;20057;-60
2021/08/30 01:34:20;;;;;;;23.98;19.00;;;16.50;99.90;;;;;;5044729;28;20115;-59
2021/08/30 01:36:49;;;;;;;26.10;20.30;;;16.50;99.90;;;;;;5045771;28;20053;-59
2021/08/30 01:39:17;;;;;;;34.38;20.05;;;16.50;99.90;;;;;;5044255;28;20052;-59
2021/08/30 01:41:45;;;;;;;27.15;19.00;;;16.50;99.90;;;;;;5045307;28;20053;-60
2021/08/30 01:44:14;;;;;;;33.83;21.25;;;16.60;99.90;;;;;;5045128;28;20037;-60
2021/08/30 01:46:42;;;;;;;28.63;19.90;;;16.60;99.90;;;;;;5043602;28;20056;-61
2021/08/30 01:49:09;;;;;;;30.15;19.25;;;16.60;99.90;;;;;;5048007;28;20125;-61
2021/08/30 01:51:36;;;;;;;22.02;18.90;;;16.60;99.90;;;;;;5068717;28;20359;-60
2021/08/30 01:54:04;;;;;;;28.70;20.15;;;16.60;99.90;;;;;;5070839;28;20517;-60
2021/08/30 01:56:32;;;;;;;29.83;20.63;;;16.60;99.90;;;;;;5077499;28;20127;-60
2021/08/30 02:01:46;;;;;;;27.20;19.42;;;16.60;99.90;;;;;;5076011;28;20056;-60
2021/08/30 02:04:13;;;;;;;28.88;21.08;;;16.60;99.90;;;;;;5088063;28;20472;-60
2021/08/30 02:06:39;;;;;;;25.83;19.08;;;16.60;99.90;;;;;;5070092;28;20079;-60
2021/08/30 02:09:05;;;;;;;29.52;19.60;;;16.60;99.90;;;;;;5076290;28;20053;-60
2021/08/30 02:11:33;;;;;;;31.70;21.33;;;16.60;99.90;;;;;;5067928;28;20048;-61
2021/08/30 02:14:04;;;;;;;30.67;19.98;;;16.60;99.90;;;;;;5082372;28;20044;-61
2021/08/30 02:16:30;;;;;;;30.00;19.00;;;16.60;99.90;;;;;;5105137;27;20060;-60
2021/08/30 02:19:17;;;;;;;23.00;20.15;;;16.60;99.90;;;;;;5071432;28;20056;-60
2021/08/30 02:21:45;;;;;;;32.72;19.70;;;16.60;99.90;;;;;;5068154;28;20057;-60
2021/08/30 02:24:33;;;;;;;31.35;20.17;;;16.60;99.90;;;;;;5068800;28;20236;-61
2021/08/30 02:27:07;;;;;;;28.35;19.95;;;16.60;99.90;;;;;;5074554;28;20063;-60
2021/08/30 02:29:47;;;;;;;35.33;22.25;;;16.60;99.90;;;;;;5081584;28;20052;-60
2021/08/30 02:32:15;;;;;;;26.42;19.67;;;16.60;99.90;;;;;;5084851;28;20059;-61
2021/08/30 02:34:48;;;;;;;28.30;20.00;;;16.60;99.90;;;;;;5088715;28;20059;-60
2021/08/30 02:37:15;;;;;;;29.75;20.48;;;16.60;99.90;;;;;;5079295;28;20088;-60
2021/08/30 02:39:47;;;;;;;27.80;20.75;;;16.60;99.90;;;;;;5070772;28;20584;-60
2021/08/30 02:42:15;;;;;;;30.40;20.85;;;16.50;99.90;;;;;;5072986;28;20059;-62
2021/08/30 02:44:43;;;;;;;39.22;21.60;;;16.50;99.90;;;;;;5088460;28;20088;-60
2021/08/30 02:47:10;;;;;;;30.30;20.50;;;16.50;99.90;;;;;;5082496;28;20512;-61
2021/08/30 02:49:40;;;;;;;27.33;20.27;;;16.40;99.90;;;;;;5078889;28;20138;-60
2021/08/30 02:52:08;;;;;;;31.77;20.83;;;16.30;99.90;;;;;;5086429;28;20051;-60
2021/08/30 02:54:39;;;;;;;31.58;22.65;;;16.30;99.90;;;;;;5081301;28;20059;-60
2021/08/30 02:57:07;;;;;;;38.83;24.20;;;16.20;99.90;;;;;;5081279;28;20067;-62
2021/08/30 02:59:34;;;;;;;34.08;23.42;;;16.20;99.90;;;;;;5075922;28;20393;-59
2021/08/30 03:02:02;;;;;;;35.20;22.65;;;16.20;99.90;;;;;;5081130;28;20048;-60
2021/08/30 03:04:32;;;;;;;38.90;23.80;;;16.20;99.90;;;;;;5078106;28;20056;-60
2021/08/30 03:06:59;;;;;;;39.72;23.08;;;16.20;99.90;;;;;;5086316;28;20625;-60
2021/08/30 03:09:26;;;;;;;35.08;22.98;;;16.20;99.90;;;;;;5080621;28;20504;-61
2021/08/30 03:11:53;;;;;;;31.98;22.88;;;16.20;99.90;;;;;;5068127;28;20101;-59
2021/08/30 03:14:25;;;;;;;35.25;23.48;;;16.20;99.90;;;;;;5069726;28;20092;-59
2021/08/30 03:16:58;;;;;;;36.28;24.85;;;16.10;99.90;;;;;;5074770;28;20060;-60
2021/08/30 03:19:26;;;;;;;37.00;25.08;;;16.10;99.90;;;;;;5085904;28;20087;-61
2021/08/30 03:21:56;;;;;;;45.15;26.75;;;16.10;99.90;;;;;;5075400;28;20500;-61
2021/08/30 03:24:23;;;;;;;41.42;25.65;;;16.10;99.90;;;;;;5081970;28;20554;-60
2021/08/30 03:26:53;;;;;;;41.85;25.15;;;16.20;99.90;;;;;;5069488;28;20686;-58
2021/08/30 03:29:20;;;;;;;42.35;25.73;;;16.20;99.90;;;;;;5077814;28;20052;-59
2021/08/30 03:31:49;;;;;;;40.78;24.15;;;16.20;99.90;;;;;;5080284;28;20126;-60
2021/08/30 03:34:16;;;;;;;40.65;25.40;;;16.10;99.90;;;;;;5066768;28;20056;-59
2021/08/30 03:36:43;;;;;;;35.08;25.02;;;16.20;99.90;;;;;;5077896;28;20438;-59
2021/08/30 03:39:10;;;;;;;40.60;25.85;;;16.20;99.90;;;;;;5080416;28;20048;-59
2021/08/30 03:41:37;;;;;;;38.03;24.30;;;16.20;99.90;;;;;;5071656;28;20063;-59
2021/08/30 03:44:04;;;;;;;40.47;25.88;;;16.20;99.90;;;;;;5077801;28;20106;-59
2021/08/30 03:46:36;;;;;;;36.00;24.90;;;16.20;99.90;;;;;;5091569;28;20504;-59
2021/08/30 03:49:05;;;;;;;37.78;25.42;;;16.20;99.90;;;;;;5086251;28;20052;-59
2021/08/30 03:51:32;;;;;;;39.17;24.83;;;16.20;99.90;;;;;;5079731;28;20059;-59
2021/08/30 03:53:59;;;;;;;34.83;24.40;;;16.20;99.90;;;;;;5079328;28;20113;-59
2021/08/30 03:56:27;;;;;;;37.72;25.02;;;16.30;99.90;;;;;;5086274;28;20133;-59
2021/08/30 03:58:53;;;;;;;40.88;26.20;;;16.20;99.90;;;;;;5076993;28;20127;-61
2021/08/30 04:01:24;;;;;;;41.72;25.48;;;16.20;99.90;;;;;;5110765;27;20044;-59
2021/08/30 04:03:54;;;;;;;40.65;26.08;;;16.20;99.90;;;;;;5081086;28;20047;-59
2021/08/30 04:06:22;;;;;;;42.80;26.42;;;16.20;99.90;;;;;;5085962;28;20369;-59
2021/08/30 04:08:52;;;;;;;36.50;26.88;;;16.20;99.90;;;;;;5079364;28;20113;-60
2021/08/30 04:11:19;;;;;;;45.05;26.73;;;16.20;99.90;;;;;;5085533;28;20051;-59
2021/08/30 04:13:45;;;;;;;40.15;26.95;;;16.20;99.90;;;;;;5076707;28;20054;-59
2021/08/30 04:16:12;;;;;;;49.47;27.92;;;16.20;99.90;;;;;;5078546;28;20063;-59
2021/08/30 04:18:38;;;;;;;50.58;27.77;;;16.20;99.90;;;;;;5079469;28;20233;-59
2021/08/30 04:21:04;;;;;;;49.40;27.05;;;16.20;99.90;;;;;;5085781;28;20523;-59
2021/08/30 04:23:32;;;;;;;45.65;27.70;;;16.20;99.90;;;;;;5082809;28;20048;-59
2021/08/30 04:25:58;;;;;;;44.95;28.40;;;16.20;99.90;;;;;;5080884;28;20697;-59
2021/08/30 04:28:24;;;;;;;41.25;26.30;;;16.30;99.90;;;;;;5085464;28;20121;-61
2021/08/30 04:30:52;;;;;;;45.95;29.58;;;16.30;99.90;;;;;;5072656;28;20751;-59
2021/08/30 04:33:21;;;;;;;48.00;28.55;;;16.20;99.90;;;;;;5071986;28;20060;-59
2021/08/30 04:35:47;;;;;;;41.60;28.02;;;16.30;99.90;;;;;;5070690;28;20437;-59
2021/08/30 04:38:13;;;;;;;46.55;29.20;;;16.30;99.90;;;;;;5073259;28;20131;-60
2021/08/30 04:40:40;;;;;;;42.08;25.90;;;16.30;99.90;;;;;;5070747;28;20570;-59
2021/08/30 04:43:09;;;;;;;42.88;27.80;;;16.30;99.90;;;;;;5085831;28;20106;-59
2021/08/30 04:45:37;;;;;;;44.67;28.70;;;16.30;99.90;;;;;;5081243;28;20658;-60
2021/08/30 04:48:06;;;;;;;42.13;27.80;;;16.30;99.90;;;;;;5070883;28;20054;-59
2021/08/30 04:50:32;;;;;;;49.58;29.17;;;16.30;99.90;;;;;;5078100;28;20073;-58
2021/08/30 04:52:58;;;;;;;43.67;27.65;;;16.30;99.90;;;;;;5083534;28;20566;-60
2021/08/30 04:55:24;;;;;;;48.40;28.27;;;16.30;99.90;;;;;;5072135;28;20129;-59
2021/08/30 04:57:53;;;;;;;47.83;28.38;;;16.30;99.90;;;;;;5083158;28;20054;-59
2021/08/30 05:00:20;;;;;;;45.45;29.80;;;16.30;99.90;;;;;;5080741;28;20048;-58
2021/08/30 05:02:46;;;;;;;40.10;28.98;;;16.30;99.90;;;;;;5073765;28;20060;-60
2021/08/30 05:05:12;;;;;;;44.03;27.17;;;16.40;99.90;;;;;;5077988;28;20059;-60
2021/08/30 05:07:38;;;;;;;46.78;27.65;;;16.40;99.90;;;;;;5077809;28;20044;-58
2021/08/30 05:10:04;;;;;;;45.70;28.80;;;16.40;99.90;;;;;;5080525;28;20449;-59
2021/08/30 05:12:33;;;;;;;47.38;29.38;;;16.40;99.90;;;;;;5084498;28;20044;-60
2021/08/30 05:14:59;;;;;;;46.85;28.33;;;16.50;99.90;;;;;;5077042;28;20052;-59
2021/08/30 05:17:25;;;;;;;47.70;29.67;;;16.50;99.90;;;;;;5069364;28;20413;-59
2021/08/30 05:19:51;;;;;;;47.13;29.08;;;16.50;99.90;;;;;;5082940;28;20048;-59
2021/08/30 05:22:17;;;;;;;40.38;29.02;;;16.60;99.90;;;;;;5067354;28;20052;-59
2021/08/30 05:24:44;;;;;;;50.85;29.48;;;16.60;99.90;;;;;;5076754;28;20094;-59
2021/08/30 05:27:13;;;;;;;41.08;27.38;;;16.60;99.90;;;;;;5083166;28;20052;-59
2021/08/30 05:29:39;;;;;;;36.22;26.40;;;16.70;99.90;;;;;;5084859;28;20113;-59
2021/08/30 05:32:06;;;;;;;35.40;25.50;;;16.70;99.90;;;;;;5078193;28;20059;-58
2021/08/30 05:34:32;;;;;;;36.30;27.25;;;16.80;99.90;;;;;;5083684;28;20063;-59
2021/08/30 05:36:58;;;;;;;43.63;28.63;;;16.80;99.90;;;;;;5083807;28;20405;-59
2021/08/30 05:39:24;;;;;;;34.00;27.83;;;16.90;99.90;;;;;;5088650;28;20642;-58
2021/08/30 05:41:50;;;;;;;39.55;27.27;;;16.90;99.90;;;;;;5083087;28;20162;-59
2021/08/30 05:44:16;;;;;;;40.75;26.65;;;16.90;99.90;;;;;;5083927;28;20062;-59
2021/08/30 05:46:42;;;;;;;30.38;24.80;;;17.00;99.90;;;;;;5079952;28;20053;-59
2021/08/30 05:49:08;;;;;;;35.22;25.08;;;17.00;99.90;;;;;;5083937;28;20448;-59
2021/08/30 05:51:35;;;;;;;40.80;30.38;;;17.00;99.90;;;;;;5086511;28;20055;-58
2021/08/30 05:54:01;;;;;;;40.78;26.80;;;17.10;99.90;;;;;;5085785;28;20044;-59
2021/08/30 05:56:27;;;;;;;39.13;28.45;;;17.20;99.90;;;;;;5083538;28;20059;-59
2021/08/30 05:58:54;;;;;;;38.70;27.63;;;17.20;99.90;;;;;;5082762;28;20610;-59
2021/08/30 06:01:20;;;;;;;64.80;55.22;;;17.30;99.90;;;;;;5083628;28;20245;-59
2021/08/30 06:03:46;;;;;;;31.30;23.48;;;17.30;99.90;;;;;;5083573;28;20076;-59
2021/08/30 06:06:12;;;;;;;60.20;46.60;;;17.30;99.90;;;;;;5081467;28;20123;-59
2021/08/30 06:08:38;;;;;;;61.60;51.53;;;17.30;99.90;;;;;;5081821;28;20109;-59
2021/08/30 06:11:04;;;;;;;31.15;23.58;;;17.40;99.90;;;;;;5071507;28;20415;-59
2021/08/30 06:13:30;;;;;;;34.13;26.58;;;17.50;99.90;;;;;;5089236;28;20063;-59
2021/08/30 06:15:56;;;;;;;32.97;24.17;;;17.50;99.90;;;;;;5078018;28;20040;-58
2021/08/30 06:18:26;;;;;;;108.35;96.50;;;17.50;99.90;;;;;;5085061;28;20057;-59
2021/08/30 06:20:53;;;;;;;46.13;39.00;;;17.50;99.90;;;;;;5084717;28;20087;-59
2021/08/30 06:23:19;;;;;;;29.60;21.23;;;17.60;99.90;;;;;;5089047;28;20056;-59
2021/08/30 06:25:45;;;;;;;27.25;18.10;;;17.60;99.90;;;;;;5089755;28;20062;-59
2021/08/30 06:28:12;;;;;;;63.00;54.78;;;17.60;99.90;;;;;;5089795;28;20507;-58
2021/08/30 06:30:38;;;;;;;27.88;18.85;;;17.70;99.90;;;;;;5088957;28;20052;-58
2021/08/30 06:33:04;;;;;;;45.83;36.72;;;17.80;99.90;;;;;;5084959;28;20087;-58
2021/08/30 06:35:30;;;;;;;26.30;20.25;;;18.00;99.90;;;;;;5089130;28;20102;-58
2021/08/30 06:37:57;;;;;;;28.13;23.27;;;18.10;99.90;;;;;;5086501;28;20051;-58
2021/08/30 06:40:23;;;;;;;30.38;21.90;;;18.20;99.90;;;;;;5084572;28;20056;-58
2021/08/30 06:42:52;;;;;;;211.90;190.68;;;18.20;99.90;;;;;;5087091;28;20128;-58
2021/08/30 06:45:22;;;;;;;66.68;59.58;;;18.40;99.90;;;;;;5089299;28;20139;-58
2021/08/30 06:47:48;;;;;;;28.42;24.70;;;18.30;99.90;;;;;;5089920;28;20052;-59
2021/08/30 06:50:15;;;;;;;21.80;16.45;;;18.30;99.90;;;;;;5087669;28;20115;-58
2021/08/30 06:52:41;;;;;;;28.33;25.25;;;18.30;99.90;;;;;;5088435;28;20130;-58
2021/08/30 06:55:07;;;;;;;31.23;26.83;;;18.30;99.90;;;;;;5087248;28;20051;-58
2021/08/30 06:57:35;;;;;;;27.05;22.75;;;18.30;99.90;;;;;;5087737;28;20084;-53
2021/08/30 07:00:05;;;;;;;28.63;24.80;;;18.30;99.90;;;;;;5088347;28;20088;-58
2021/08/30 07:02:31;;;;;;;23.67;19.95;;;18.50;99.90;;;;;;5086601;28;20051;-58
2021/08/30 07:04:57;;;;;;;27.60;20.77;;;18.60;99.90;;;;;;5088058;28;20048;-58
2021/08/30 07:07:24;;;;;;;25.67;21.65;;;18.70;99.90;;;;;;5081767;28;20057;-58
2021/08/30 07:09:50;;;;;;;20.13;15.80;;;18.80;99.90;;;;;;5066642;28;20056;-58
2021/08/30 07:12:17;;;;;;;19.90;13.82;;;19.10;99.90;;;;;;5072398;28;20048;-58
2021/08/30 07:14:43;;;;;;;17.30;15.20;;;19.20;99.90;;;;;;5088838;28;20054;-58
2021/08/30 07:17:09;;;;;;;23.15;19.48;;;19.40;99.90;;;;;;5086313;28;20055;-57
2021/08/30 07:19:36;;;;;;;38.72;31.83;;;19.40;99.90;;;;;;5086965;28;20044;-57
2021/08/30 07:22:04;;;;;;;26.70;23.85;;;19.50;99.90;;;;;;5085534;28;20048;-58
2021/08/30 07:24:30;;;;;;;23.92;21.38;;;19.70;99.90;;;;;;5087058;28;20108;-58
2021/08/30 07:26:56;;;;;;;22.15;19.42;;;19.80;99.90;;;;;;5086857;28;20397;-57
2021/08/30 07:29:25;;;;;;;20.42;13.27;;;19.90;99.90;;;;;;5089088;28;20071;-58
2021/08/30 07:31:51;;;;;;;37.78;33.83;;;20.10;99.90;;;;;;5079321;28;20089;-57
2021/08/30 07:34:18;;;;;;;24.40;21.83;;;20.30;99.90;;;;;;5088911;28;20056;-53
2021/08/30 07:36:46;;;;;;;15.57;13.48;;;20.40;99.90;;;;;;5086621;28;20063;-53
2021/08/30 07:39:17;;;;;;;14.25;12.85;;;20.50;99.90;;;;;;5088365;28;20056;-56
2021/08/30 07:41:42;;;;;;;25.20;22.25;;;20.40;99.90;;;;;;5071967;28;20496;-50
2021/08/30 07:44:08;;;;;;;19.73;16.90;;;20.50;99.90;;;;;;5086491;28;20118;-56
2021/08/30 07:46:34;;;;;;;14.95;13.32;;;20.70;99.90;;;;;;5084072;28;20059;-51
2021/08/30 07:49:00;;;;;;;18.95;16.83;;;20.70;99.90;;;;;;5067432;28;20055;-49
2021/08/30 07:51:26;;;;;;;17.40;15.55;;;20.70;99.90;;;;;;5082718;28;20056;-54
2021/08/30 07:53:53;;;;;;;22.45;20.10;;;20.70;99.90;;;;;;5087519;28;20052;-53
2021/08/30 07:56:19;;;;;;;21.30;19.13;;;20.80;99.90;;;;;;5076814;28;20148;-51
2021/08/30 07:58:45;;;;;;;15.35;13.70;;;21.00;99.90;;;;;;5073684;28;20075;-49
2021/08/30 08:01:11;;;;;;;15.85;14.20;;;21.20;99.90;;;;;;5072912;28;20052;-50
2021/08/30 08:03:40;;;;;;;13.43;10.85;;;21.30;99.90;;;;;;5070225;28;20592;-52
2021/08/30 08:06:06;;;;;;;21.70;17.10;;;21.50;99.90;;;;;;5081598;28;20055;-49
2021/08/30 08:08:33;;;;;;;27.65;24.80;;;21.40;99.90;;;;;;5078686;28;20112;-54
2021/08/30 08:10:59;;;;;;;36.97;33.45;;;21.40;99.90;;;;;;5089025;28;20543;-54
2021/08/30 08:13:26;;;;;;;33.97;30.60;;;21.40;99.90;;;;;;5087972;28;20052;-53
2021/08/30 08:15:52;;;;;;;41.85;37.85;;;21.50;99.90;;;;;;5080287;28;20059;-52
2021/08/30 08:18:18;;;;;;;26.42;23.75;;;21.50;99.90;;;;;;5085042;28;20513;-54
2021/08/30 08:20:48;;;;;;;34.53;31.15;;;21.50;99.90;;;;;;5088453;28;20055;-54
2021/08/30 08:23:14;;;;;;;14.50;12.15;;;21.50;99.90;;;;;;5088074;28;20052;-53
2021/08/30 08:25:40;;;;;;;10.27;8.45;;;21.60;99.90;;;;;;5086741;28;20059;-56
2021/08/30 08:28:09;;;;;;;27.13;24.52;;;21.90;99.90;;;;;;5087054;28;20052;-54
2021/08/30 08:30:35;;;;;;;14.80;13.38;;;21.80;99.90;;;;;;5082445;28;20505;-54
2021/08/30 08:33:01;;;;;;;27.23;24.50;;;21.80;99.90;;;;;;5082492;28;20044;-51
2021/08/30 08:35:28;;;;;;;21.13;19.08;;;21.80;99.90;;;;;;5079170;28;20416;-57
2021/08/30 08:37:54;;;;;;;11.73;10.52;;;21.90;99.90;;;;;;5084117;28;20051;-57
2021/08/30 08:40:20;;;;;;;21.33;19.08;;;22.00;99.90;;;;;;5083006;28;20389;-57
2021/08/30 08:42:47;;;;;;;14.30;12.60;;;21.90;99.90;;;;;;5083877;28;20051;-57
2021/08/30 08:45:15;;;;;;;12.15;9.50;;;21.90;99.90;;;;;;5117011;27;20058;-57
2021/08/30 08:47:42;;;;;;;13.65;12.32;;;21.90;99.90;;;;;;5085680;28;20059;-58
2021/08/30 08:50:14;;;;;;;27.27;24.67;;;21.80;99.90;;;;;;5076746;28;20084;-58
2021/08/30 08:52:43;;;;;;;11.93;9.55;;;22.00;99.90;;;;;;5076273;28;20059;-59
2021/08/30 08:55:10;;;;;;;11.43;10.32;;;22.00;99.90;;;;;;5070567;28;20140;-58
2021/08/30 08:57:37;;;;;;;11.70;9.65;;;22.20;99.90;;;;;;5081692;28;20098;-59
2021/08/30 09:00:09;;;;;;;14.27;12.55;;;22.50;99.90;;;;;;5085509;28;20048;-59
2021/08/30 09:02:35;;;;;;;13.85;12.45;;;22.30;99.90;;;;;;5071889;28;20052;-58
2021/08/30 09:05:06;;;;;;;13.85;10.75;;;22.50;99.90;;;;;;5086851;28;20553;-58
2021/08/30 09:07:35;;;;;;;10.93;9.50;;;22.20;99.90;;;;;;5085476;28;20055;-58
2021/08/30 09:10:04;;;;;;;11.43;10.32;;;22.00;99.90;;;;;;5085469;28;20052;-58
2021/08/30 09:12:30;;;;;;;16.30;14.73;;;22.00;99.90;;;;;;5086452;28;20079;-58
2021/08/30 09:14:57;;;;;;;10.80;9.30;;;21.90;99.90;;;;;;5084732;28;20415;-58
2021/08/30 09:17:24;;;;;;;10.35;9.00;;;21.80;99.90;;;;;;5083944;28;20461;-59
2021/08/30 09:19:54;;;;;;;10.35;8.43;;;21.60;99.90;;;;;;5085682;28;20055;-58
2021/08/30 09:22:30;;;;;;;8.73;7.72;;;21.60;99.90;;;;;;5074448;28;20068;-57
2021/08/30 09:25:08;;;;;;;7.80;7.00;;;21.60;99.90;;;;;;5084266;28;20044;-57
2021/08/30 09:27:38;;;;;;;22.88;20.63;;;22.50;99.90;;;;;;5083335;28;20048;-55
2021/08/30 09:30:07;;;;;;;19.75;17.65;;;22.80;99.90;;;;;;5077923;28;20040;-57
2021/08/30 09:32:34;;;;;;;13.02;11.70;;;22.80;99.90;;;;;;5081677;28;20088;-58
2021/08/30 09:35:02;;;;;;;16.05;14.35;;;22.60;99.90;;;;;;5084918;28;20868;-58
2021/08/30 09:37:28;;;;;;;14.90;13.45;;;22.40;99.90;;;;;;5078169;28;20052;-57
2021/08/30 09:39:57;;;;;;;10.80;7.88;;;22.30;99.90;;;;;;5077079;28;20047;-58
2021/08/30 09:42:24;;;;;;;21.65;19.38;;;22.30;99.90;;;;;;5084211;28;20176;-57
2021/08/30 09:44:50;;;;;;;20.35;18.45;;;22.30;99.90;;;;;;5085016;28;20061;-57
2021/08/30 09:47:21;;;;;;;20.40;18.50;;;22.30;99.90;;;;;;5073965;28;20055;-58
2021/08/30 09:49:52;;;;;;;12.15;8.82;;;22.30;99.90;;;;;;5087910;28;20091;-58
2021/08/30 09:52:22;;;;;;;10.52;7.05;;;23.40;99.90;;;;;;5078515;28;20087;-57
2021/08/30 09:54:50;;;;;;;10.90;8.85;;;23.30;99.90;;;;;;5068531;28;20137;-58
2021/08/30 09:57:16;;;;;;;12.27;11.02;;;23.50;99.90;;;;;;5075388;28;20055;-58
2021/08/30 09:59:44;;;;;;;14.75;13.27;;;23.30;99.90;;;;;;5080341;28;20055;-58
2021/08/30 10:02:14;;;;;;;10.38;7.35;;;23.70;99.90;;;;;;5086558;28;20078;-57
2021/08/30 10:04:41;;;;;;;26.70;24.00;;;23.90;99.90;;;;;;5080145;28;20090;-58
2021/08/30 10:07:08;;;;;;;17.55;15.75;;;24.10;99.90;;;;;;5068092;28;20151;-59
2021/08/30 10:09:36;;;;;;;43.28;39.05;;;24.00;99.90;;;;;;5070996;28;20128;-58
2021/08/30 10:12:03;;;;;;;46.63;42.08;;;23.90;99.90;;;;;;5072304;28;20560;-58
2021/08/30 10:14:30;;;;;;;19.65;17.75;;;23.80;99.90;;;;;;5074933;28;20451;-57
2021/08/30 10:16:57;;;;;;;22.55;20.05;;;23.50;99.90;;;;;;5086415;28;20544;-58
2021/08/30 10:19:32;;;;;;;10.60;8.45;;;23.50;99.90;;;;;;5082871;28;20056;-57
2021/08/30 10:22:00;;;;;;;18.27;15.85;;;23.40;99.90;;;;;;5083633;28;20052;-57
2021/08/30 10:24:37;;;;;;;13.20;11.30;;;23.40;99.90;;;;;;5088662;28;20091;-57
2021/08/30 10:27:06;;;;;;;8.35;7.20;;;24.20;99.90;;;;;;5087124;28;20257;-57
2021/08/30 10:29:34;;;;;;;13.25;11.57;;;24.50;99.90;;;;;;5088402;28;20483;-57
2021/08/30 10:32:00;;;;;;;11.40;7.20;;;24.90;99.90;;;;;;5083260;28;20048;-55
2021/08/30 10:34:32;;;;;;;9.60;8.23;;;25.40;99.90;;;;;;5088301;28;20052;-55
2021/08/30 10:37:00;;;;;;;18.23;16.50;;;25.80;93.50;;;;;;5084386;28;20055;-56
2021/08/30 10:39:42;;;;;;;12.35;10.98;;;26.50;93.80;;;;;;5080797;28;20060;-51
2021/08/30 10:42:13;;;;;;;9.98;8.13;;;26.90;82.90;;;;;;5087729;28;20056;-53
2021/08/30 10:44:57;;;;;;;6.88;5.72;;;27.10;73.30;;;;;;5074962;28;20044;-50
2021/08/30 10:47:24;;;;;;;8.82;6.38;;;27.50;69.50;;;;;;5085058;28;20059;-51
2021/08/30 10:49:55;;;;;;;16.88;15.20;;;27.60;72.90;;;;;;5087161;28;20054;-55
2021/08/30 10:52:21;;;;;;;10.38;9.13;;;27.90;73.00;;;;;;5080576;28;20080;-52
2021/08/30 10:54:58;;;;;;;27.55;25.08;;;28.00;72.70;;;;;;5085076;28;20486;-51
2021/08/30 10:57:42;;;;;;;17.40;15.82;;;28.00;66.20;;;;;;5077133;28;20086;-51
2021/08/30 11:00:10;;;;;;;21.83;19.83;;;28.20;63.60;;;;;;5077954;28;20135;-52
2021/08/30 11:02:46;;;;;;;16.88;15.18;;;27.50;63.00;;;;;;5079474;28;20056;-53
2021/08/30 11:05:12;;;;;;;9.63;7.80;;;27.20;64.50;;;;;;5067471;28;20059;-56
2021/08/30 11:07:38;;;;;;;6.95;6.30;;;27.70;67.80;;;;;;5101160;28;20057;-52
2021/08/30 11:10:06;;;;;;;9.07;6.88;;;28.40;66.00;;;;;;5068551;28;20060;-52
2021/08/30 11:12:32;;;;;;;9.32;8.35;;;28.40;66.30;;;;;;5069088;28;20510;-54
2021/08/30 11:14:59;;;;;;;9.95;9.05;;;28.00;66.70;;;;;;5076635;28;20055;-55
2021/08/30 11:17:27;;;;;;;9.60;7.28;;;28.20;66.80;;;;;;5075628;28;20455;-54
2021/08/30 11:19:54;;;;;;;11.15;9.80;;;27.90;66.80;;;;;;5067477;28;20056;-54
2021/08/30 11:22:20;;;;;;;7.88;5.80;;;28.00;63.60;;;;;;5072030;28;20062;-52
2021/08/30 11:24:46;;;;;;;10.00;9.05;;;28.30;63.30;;;;;;5075752;28;20084;-55
2021/08/30 11:27:26;;;;;;;6.13;4.90;;;28.50;64.20;;;;;;5079576;28;20048;-51
2021/08/30 11:29:55;;;;;;;7.53;6.13;;;28.70;61.30;;;;;;5068901;28;20052;-52
2021/08/30 11:32:30;;;;;;;8.05;5.05;;;28.60;62.70;;;;;;5072142;28;20052;-54
2021/08/30 11:34:57;;;;;;;7.25;4.93;;;27.80;61.80;;;;;;5067972;28;20105;-53
2021/08/30 11:37:26;;;;;;;6.00;5.10;;;26.80;61.60;;;;;;5083921;28;20171;-52
2021/08/30 11:39:54;;;;;;;6.90;6.20;;;26.20;65.20;;;;;;5087095;28;20060;-53
2021/08/30 11:42:29;;;;;;;7.35;4.95;;;25.90;68.00;;;;;;5067634;28;20159;-54
2021/08/30 11:44:57;;;;;;;6.90;5.28;;;26.50;70.50;;;;;;5076614;28;20062;-53
2021/08/30 11:47:23;;;;;;;6.97;5.32;;;26.70;70.60;;;;;;5070166;28;20050;-50
2021/08/30 11:49:54;;;;;;;7.93;4.78;;;26.90;70.60;;;;;;5066537;28;20053;-53
2021/08/30 11:52:23;;;;;;;6.13;5.20;;;26.60;70.60;;;;;;5098793;28;20135;-55
2021/08/30 11:55:04;;;;;;;6.22;5.28;;;26.90;68.50;;;;;;5070957;28;20048;-51
2021/08/30 11:57:50;;;;;;;30.25;27.58;;;27.60;65.70;;;;;;5076406;28;20063;-56
2021/08/30 12:00:23;;;;;;;12.07;9.77;;;28.20;65.00;;;;;;5083550;28;20055;-52
2021/08/30 12:02:51;;;;;;;24.48;22.05;;;28.00;62.70;;;;;;5082596;28;20108;-52
2021/08/30 12:05:17;;;;;;;14.13;11.00;;;27.80;62.10;;;;;;5083818;28;20086;-56
2021/08/30 12:07:43;;;;;;;18.20;16.38;;;26.80;63.40;;;;;;5085934;28;20117;-54
2021/08/30 12:10:12;;;;;;;18.52;16.83;;;26.90;66.50;;;;;;5085393;28;20047;-54
2021/08/30 12:15:29;;;;;;;10.27;8.02;;;28.00;65.40;;;;;;5073804;28;20099;-53
2021/08/30 12:17:57;;;;;;;24.58;22.02;;;28.10;62.90;;;;;;5073636;28;20397;-55
2021/08/30 12:20:36;;;;;;;41.83;37.95;;;28.40;61.10;;;;;;5074875;28;20063;-55
2021/08/30 12:23:08;;;;;;;28.42;25.73;;;28.70;59.80;;;;;;5076912;28;20404;-56
2021/08/30 12:25:37;;;;;;;23.45;21.30;;;29.20;61.20;;;;;;5083132;28;20133;-54
2021/08/30 12:28:04;;;;;;;17.80;16.15;;;29.30;60.10;;;;;;5071514;28;20083;-57
2021/08/30 12:30:32;;;;;;;12.02;10.48;;;28.70;58.10;;;;;;5078927;28;20133;-57
2021/08/30 12:32:58;;;;;;;5.53;4.68;;;27.60;60.00;;;;;;5078704;28;20040;-57
2021/08/30 12:35:30;;;;;;;19.60;17.73;;;27.20;62.80;;;;;;5065275;28;20086;-55
2021/08/30 12:38:02;;;;;;;12.25;11.02;;;27.50;63.60;;;;;;5069832;28;20055;-57
2021/08/30 12:40:29;;;;;;;229.48;210.18;;;27.30;62.80;;;;;;5081517;28;20516;-51